Time;durP1;ratioP1;P1;durP2;ratioP2;P2;SDS_P1;SDS_P2;PMS_P1;PMS_P2;Temp;Humidity;BMP_temperature;BMP_pressure;BME280_temperature;BME280_humidity;BME280_pressure;Samples;Min_cycle;Max_cycle;Signal;HPM_P1;HPM_P2
2022/07/08 00:00:17;;;;;;;0.87;0.87;;;;;;;24.33;45.69;95041.19;5042006;28;20201;-70
2022/07/08 00:02:44;;;;;;;0.20;0.20;;;;;;;24.32;45.31;95059.19;5012498;28;20668;-68
2022/07/08 00:05:11;;;;;;;0.50;0.50;;;;;;;24.45;45.23;95044.63;5012231;28;20202;-70
2022/07/08 00:07:39;;;;;;;0.60;0.60;;;;;;;24.49;45.83;95037.47;5026578;28;20207;-69
2022/07/08 00:10:06;;;;;;;0.73;0.60;;;;;;;24.87;45.18;95037.06;5019774;28;20201;-69
2022/07/08 00:12:33;;;;;;;0.67;0.67;;;;;;;24.98;45.28;95030.84;5046952;28;20207;-69
2022/07/08 00:15:01;;;;;;;0.33;0.20;;;;;;;24.95;45.21;95036.91;5037701;28;20590;-70
2022/07/08 00:17:27;;;;;;;0.60;0.60;;;;;;;24.96;44.91;95035.00;5038143;28;20193;-70
2022/07/08 00:19:54;;;;;;;1.07;0.93;;;;;;;24.99;44.61;95024.38;5032145;28;20197;-68
2022/07/08 00:22:22;;;;;;;0.30;0.30;;;;;;;24.93;45.48;95031.09;5019317;28;20229;-70
2022/07/08 00:24:48;;;;;;;0.10;0.10;;;;;;;24.93;45.17;95031.09;5029121;28;20201;-71
2022/07/08 00:27:15;;;;;;;0.30;0.30;;;;;;;24.85;45.28;95023.97;5031764;28;20225;-68
2022/07/08 00:29:42;;;;;;;0.20;0.20;;;;;;;24.82;45.23;95030.03;5033959;28;20229;-69
2022/07/08 00:32:09;;;;;;;0.50;0.50;;;;;;;24.75;45.73;95024.47;5051718;28;20207;-68
2022/07/08 00:34:36;;;;;;;1.30;1.17;;;;;;;24.69;45.90;95025.81;5051143;28;20200;-70
2022/07/08 00:37:03;;;;;;;1.37;1.27;;;;;;;24.58;45.80;95035.44;5038568;28;20188;-70
2022/07/08 00:39:30;;;;;;;0.70;0.70;;;;;;;24.12;47.70;95033.34;5038725;28;20197;-70
2022/07/08 00:41:57;;;;;;;0.53;0.43;;;;;;;24.24;47.69;95035.19;5031676;28;20204;-70
2022/07/08 00:44:24;;;;;;;0.80;0.73;;;;;;;24.35;47.33;95026.38;5042575;28;20254;-69
2022/07/08 00:46:51;;;;;;;0.87;0.70;;;;;;;24.43;47.62;95035.38;5030580;28;20198;-68
2022/07/08 00:49:18;;;;;;;0.60;0.60;;;;;;;24.50;47.34;95036.38;5011815;28;20260;-69
2022/07/08 00:51:46;;;;;;;0.30;0.30;;;;;;;24.45;47.15;95036.59;5028905;28;20192;-70
2022/07/08 00:54:16;;;;;;;1.47;1.13;;;;;;;24.51;47.40;95029.88;5035618;28;20197;-70
2022/07/08 00:56:43;;;;;;;0.50;0.50;;;;;;;24.42;47.12;95031.94;5018931;28;20199;-68
2022/07/08 00:59:11;;;;;;;0.30;0.30;;;;;;;24.51;46.55;95043.28;5051137;28;20557;-69
2022/07/08 01:01:38;;;;;;;1.77;1.13;;;;;;;24.50;46.98;95047.09;5035236;28;20295;-69
2022/07/08 01:04:05;;;;;;;0.60;0.60;;;;;;;24.25;46.99;95042.13;5031518;28;20589;-69
2022/07/08 01:06:33;;;;;;;0.70;0.70;;;;;;;24.34;46.81;95040.09;5030763;28;20221;-69
2022/07/08 01:09:01;;;;;;;0.77;0.77;;;;;;;24.40;46.71;95039.50;5011419;28;20209;-67
2022/07/08 01:11:28;;;;;;;0.40;0.40;;;;;;;24.38;46.78;95039.06;5011679;28;20197;-69
2022/07/08 01:13:55;;;;;;;0.83;0.83;;;;;;;24.40;47.16;95036.84;5035392;28;20196;-68
2022/07/08 01:16:23;;;;;;;0.97;0.87;;;;;;;24.34;47.28;95040.88;5042046;28;20568;-69
2022/07/08 01:18:50;;;;;;;0.80;0.77;;;;;;;24.26;47.32;95044.47;5032615;28;20222;-67
2022/07/08 01:21:16;;;;;;;0.83;0.63;;;;;;;24.28;47.67;95031.53;5017497;28;20201;-69
2022/07/08 01:23:43;;;;;;;0.50;0.50;;;;;;;24.39;47.50;95043.31;5020152;28;20658;-67
2022/07/08 01:26:12;;;;;;;1.43;0.80;;;;;;;24.45;47.04;95041.19;5045685;28;20652;-68
2022/07/08 01:28:42;;;;;;;1.03;1.03;;;;;;;24.52;46.99;95036.81;5050638;28;20585;-70
2022/07/08 01:31:09;;;;;;;0.30;0.30;;;;;;;24.24;47.44;95025.28;5050700;28;20307;-71
2022/07/08 01:33:37;;;;;;;0.50;0.50;;;;;;;24.30;47.60;95031.97;5016990;28;20671;-71
2022/07/08 01:36:04;;;;;;;0.87;0.87;;;;;;;24.24;47.83;95029.84;5043157;28;20683;-68
2022/07/08 01:38:31;;;;;;;0.70;0.70;;;;;;;24.32;47.63;95029.72;5036222;28;20341;-68
2022/07/08 01:40:59;;;;;;;1.03;0.80;;;;;;;24.21;47.58;95035.88;5050279;28;20204;-69
2022/07/08 01:43:26;;;;;;;0.50;0.50;;;;;;;24.10;47.63;95036.31;5015891;28;20284;-70
2022/07/08 01:45:53;;;;;;;0.70;0.70;;;;;;;24.10;48.01;95035.56;5010734;28;20271;-69
2022/07/08 01:48:21;;;;;;;0.50;0.50;;;;;;;23.92;48.51;95023.50;5013730;28;20214;-70
2022/07/08 01:50:48;;;;;;;0.37;0.37;;;;;;;23.91;48.49;95038.00;5034949;28;20241;-69
2022/07/08 01:53:14;;;;;;;0.87;0.87;;;;;;;23.93;48.47;95046.47;5038290;28;20725;-70
2022/07/08 01:55:41;;;;;;;0.30;0.30;;;;;;;23.77;48.68;95045.59;5031889;28;20197;-68
2022/07/08 01:58:08;;;;;;;0.27;0.27;;;;;;;23.70;49.14;95037.34;5039328;28;21016;-68
2022/07/08 02:00:35;;;;;;;0.53;0.53;;;;;;;23.78;48.86;95044.47;5022681;28;20201;-66
2022/07/08 02:03:02;;;;;;;0.70;0.70;;;;;;;23.88;48.58;95038.66;5023949;28;20239;-69
2022/07/08 02:05:32;;;;;;;0.43;0.40;;;;;;;23.81;48.86;95043.81;5023824;28;20206;-68
2022/07/08 02:08:03;;;;;;;0.27;0.27;;;;;;;23.90;48.08;95047.16;5024129;28;20637;-69
2022/07/08 02:12:18;;;;;;;0.73;0.60;;;;;;;23.79;48.54;95051.38;5033928;28;20223;-68
2022/07/08 02:13:18;;;;;;;0.70;0.70;;;;;;;23.80;49.02;95042.22;5017322;28;20270;-68
2022/07/08 02:15:46;;;;;;;0.40;0.40;;;;;;;23.80;48.97;95047.56;5017048;28;20202;-69
2022/07/08 02:18:13;;;;;;;1.80;1.07;;;;;;;23.77;48.74;95053.59;5048527;28;20292;-70
2022/07/08 02:20:40;;;;;;;0.50;0.40;;;;;;;23.70;48.74;95032.75;5049483;28;20197;-68
2022/07/08 02:23:07;;;;;;;0.27;0.27;;;;;;;23.89;48.59;95050.94;5017723;28;20201;-70
2022/07/08 02:25:34;;;;;;;0.30;0.30;;;;;;;23.71;48.21;95041.56;5039541;28;20228;-69
2022/07/08 02:28:01;;;;;;;1.17;1.07;;;;;;;23.71;48.39;95049.59;5044928;28;20196;-68
2022/07/08 02:30:28;;;;;;;0.50;0.50;;;;;;;23.65;48.43;95034.88;5009701;28;20831;-70
2022/07/08 02:32:54;;;;;;;0.43;0.43;;;;;;;23.72;48.65;95053.84;5023047;28;20734;-70
2022/07/08 02:35:21;;;;;;;0.93;0.50;;;;;;;23.53;49.06;95053.59;5022984;28;20275;-70
2022/07/08 02:37:48;;;;;;;0.60;0.60;;;;;;;23.65;48.67;95048.25;5036737;28;20201;-67
2022/07/08 02:40:15;;;;;;;0.33;0.33;;;;;;;23.69;48.43;95057.16;5015032;28;20205;-67
2022/07/08 02:42:42;;;;;;;0.47;0.47;;;;;;;23.68;48.22;95051.06;5029465;28;20201;-67
2022/07/08 02:45:09;;;;;;;0.77;0.77;;;;;;;23.56;48.56;95059.06;5029123;28;20254;-67
2022/07/08 02:47:35;;;;;;;0.33;0.33;;;;;;;23.36;49.11;95061.78;5038692;28;20196;-67
2022/07/08 02:50:05;;;;;;;0.50;0.50;;;;;;;23.36;49.45;95059.13;5019541;28;20225;-67
2022/07/08 02:52:32;;;;;;;0.80;0.80;;;;;;;23.07;50.15;95066.16;5021502;28;20205;-68
2022/07/08 02:54:59;;;;;;;0.30;0.30;;;;;;;22.88;50.77;95060.50;5020100;28;20201;-70
2022/07/08 02:57:26;;;;;;;0.20;0.20;;;;;;;22.64;51.73;95065.75;5019375;28;20196;-68
2022/07/08 02:59:52;;;;;;;0.67;0.67;;;;;;;22.34;52.34;95061.56;5031096;28;20279;-71
2022/07/08 03:02:19;;;;;;;0.50;0.50;;;;;;;22.01;53.47;51780.91;5041673;28;20219;-69
2022/07/08 03:04:46;;;;;;;1.70;0.83;;;;;;;21.92;53.80;95055.38;5029386;28;20193;-68
2022/07/08 03:07:13;;;;;;;1.40;1.03;;;;;;;22.26;53.15;95059.75;5021731;28;20193;-69
2022/07/08 03:09:40;;;;;;;1.50;0.63;;;;;;;22.03;53.20;95055.78;5015731;28;20225;-70
2022/07/08 03:12:07;;;;;;;1.33;0.40;;;;;;;22.16;52.36;95060.09;5018165;28;20256;-67
2022/07/08 03:14:34;;;;;;;0.73;0.73;;;;;;;22.45;51.59;95061.94;5030028;28;20203;-69
2022/07/08 03:17:01;;;;;;;0.20;0.20;;;;;;;22.59;51.17;95062.50;5048914;28;20702;-68
2022/07/08 03:19:27;;;;;;;2.10;1.23;;;;;;;22.47;51.22;95059.72;5018958;28;20201;-68
2022/07/08 03:21:54;;;;;;;0.20;0.20;;;;;;;22.61;50.94;95060.31;5029226;28;20202;-69
2022/07/08 03:24:21;;;;;;;0.53;0.53;;;;;;;22.58;50.54;95061.72;5029029;28;20239;-68
2022/07/08 03:26:48;;;;;;;0.60;0.60;;;;;;;22.68;49.98;95063.97;5048733;28;20231;-69
2022/07/08 03:29:15;;;;;;;0.20;0.20;;;;;;;22.87;49.84;95053.63;5036407;28;20201;-67
2022/07/08 03:31:41;;;;;;;0.50;0.50;;;;;;;23.04;49.78;95061.47;5042856;28;20193;-68
2022/07/08 03:34:09;;;;;;;0.63;0.63;;;;;;;23.01;49.92;95064.78;5028864;28;20664;-69
2022/07/08 03:36:36;;;;;;;0.50;0.27;;;;;;;23.21;49.28;95073.09;5017854;28;20578;-68
2022/07/08 03:39:03;;;;;;;0.20;0.20;;;;;;;23.22;49.77;95074.66;5030759;28;20628;-70
2022/07/08 03:41:30;;;;;;;0.50;0.33;;;;;;;23.29;49.68;95074.91;5038288;28;20246;-68
2022/07/08 03:43:57;;;;;;;0.83;0.83;;;;;;;23.23;49.91;95073.56;5038347;28;20621;-67
2022/07/08 03:46:24;;;;;;;0.60;0.60;;;;;;;23.32;49.66;95069.69;5038926;28;20668;-70
2022/07/08 03:48:51;;;;;;;0.30;0.30;;;;;;;23.39;49.71;95079.88;5052453;28;20219;-72
2022/07/08 03:51:20;;;;;;;0.30;0.30;;;;;;;23.48;49.71;95077.88;5028539;28;20233;-68
2022/07/08 03:53:47;;;;;;;1.80;1.00;;;;;;;23.54;49.54;95076.56;5035138;28;20279;-68
2022/07/08 03:56:14;;;;;;;1.07;1.07;;;;;;;23.53;49.39;95069.63;5025185;28;20561;-69
2022/07/08 03:58:40;;;;;;;1.40;1.27;;;;;;;23.45;50.21;95084.66;5045943;28;21047;-69
2022/07/08 04:01:07;;;;;;;0.40;0.40;;;;;;;23.47;50.30;95070.94;5024669;28;20273;-68
2022/07/08 04:03:34;;;;;;;1.53;1.43;;;;;;;23.48;50.28;95083.22;5013584;28;20186;-68
2022/07/08 04:06:01;;;;;;;0.83;0.73;;;;;;;23.55;50.09;95080.78;5011807;28;20229;-68
2022/07/08 04:08:28;;;;;;;0.77;0.77;;;;;;;23.68;49.84;95077.81;5019407;28;20190;-68
2022/07/08 04:10:56;;;;;;;0.67;0.67;;;;;;;23.72;49.36;95067.22;5010838;28;20865;-68
2022/07/08 04:13:25;;;;;;;1.90;1.50;;;;;;;23.78;49.40;95074.69;5017217;28;20206;-69
2022/07/08 04:15:52;;;;;;;0.77;0.77;;;;;;;23.83;49.08;95079.03;5014637;28;20256;-69
2022/07/08 04:18:19;;;;;;;1.20;1.10;;;;;;;23.82;48.95;95078.25;5031596;28;20201;-69
2022/07/08 04:20:46;;;;;;;0.83;0.83;;;;;;;23.85;48.32;95064.19;5020208;28;20665;-71
2022/07/08 04:23:13;;;;;;;0.83;0.83;;;;;;;24.01;48.27;95075.06;5047849;28;20196;-70
2022/07/08 04:25:40;;;;;;;1.43;1.33;;;;;;;23.95;48.67;95082.50;5031541;28;20265;-72
2022/07/08 04:28:06;;;;;;;2.53;1.03;;;;;;;23.81;48.68;95081.28;5019116;28;20239;-70
2022/07/08 04:30:33;;;;;;;3.70;1.57;;;;;;;23.90;48.50;95079.28;5045231;28;20221;-70
2022/07/08 04:33:00;;;;;;;0.80;0.80;;;;;;;23.75;48.94;95061.19;5023750;28;20227;-70
2022/07/08 04:35:27;;;;;;;1.50;1.07;;;;;;;24.05;48.89;95092.78;5028109;28;20727;-66
2022/07/08 04:37:54;;;;;;;0.73;0.73;;;;;;;24.04;48.53;95085.88;5033739;28;20208;-69
2022/07/08 04:40:27;;;;;;;4.13;3.07;;;;;;;24.10;48.65;95083.75;5030388;28;20208;-68
2022/07/08 04:42:54;;;;;;;1.83;1.73;;;;;;;24.05;48.27;95078.59;5016661;28;20238;-66
2022/07/08 04:45:21;;;;;;;2.17;1.93;;;;;;;24.16;48.18;95066.31;5033296;28;20268;-68
2022/07/08 04:47:48;;;;;;;5.90;3.50;;;;;;;24.40;47.81;95076.22;5010960;28;20204;-65
2022/07/08 04:50:16;;;;;;;1.93;1.57;;;;;;;24.50;48.14;95081.91;5011726;28;20218;-62
2022/07/08 04:52:43;;;;;;;8.03;5.70;;;;;;;24.43;47.58;95080.94;5032810;28;20190;-66
2022/07/08 04:55:27;;;;;;;5.10;1.63;;;;;;;24.44;47.10;95083.25;5009101;28;20202;-67
2022/07/08 04:57:55;;;;;;;6.37;5.87;;;;;;;24.43;47.60;95075.56;5037660;28;20200;-67
2022/07/08 05:00:22;;;;;;;11.90;8.57;;;;;;;24.54;47.34;95069.38;5039918;28;20293;-68
2022/07/08 05:02:50;;;;;;;1.53;1.43;;;;;;;24.55;47.76;95068.28;5035454;28;20196;-70
2022/07/08 05:05:18;;;;;;;1.10;1.00;;;;;;;23.99;48.73;95071.91;5036745;28;20200;-67
2022/07/08 05:07:47;;;;;;;1.27;1.10;;;;;;;24.29;48.25;95070.56;5039809;28;20279;-66
2022/07/08 05:10:16;;;;;;;1.60;1.20;;;;;;;24.62;47.46;95068.47;5030814;28;20679;-67
2022/07/08 05:12:44;;;;;;;1.43;1.33;;;;;;;24.63;47.24;95070.06;5036665;28;20282;-67
2022/07/08 05:15:11;;;;;;;1.70;1.60;;;;;;;24.81;47.38;95076.72;5042489;28;20193;-67
2022/07/08 05:17:39;;;;;;;0.57;0.57;;;;;;;24.69;47.47;95066.00;5023260;28;20211;-66
2022/07/08 05:20:08;;;;;;;1.10;1.10;;;;;;;24.85;46.93;95071.47;5050660;28;20207;-66
2022/07/08 05:22:36;;;;;;;2.67;1.83;;;;;;;24.92;46.88;95077.81;5046132;28;20197;-65
2022/07/08 05:25:04;;;;;;;0.97;0.97;;;;;;;24.36;47.29;95076.13;5042413;28;20204;-65
2022/07/08 05:27:31;;;;;;;0.77;0.77;;;;;;;24.35;47.66;95071.09;5047709;28;20212;-67
2022/07/08 05:29:58;;;;;;;0.77;0.77;;;;;;;24.67;47.91;95078.97;5040142;28;20713;-66
2022/07/08 05:32:26;;;;;;;0.83;0.83;;;;;;;23.72;48.92;95083.28;5050579;28;20200;-66
2022/07/08 05:35:00;;;;;;;0.30;0.30;;;;;;;24.24;48.44;95078.81;5031260;28;20205;-66
2022/07/08 05:37:28;;;;;;;2.10;1.67;;;;;;;24.64;48.05;95071.59;5035771;28;20258;-66
2022/07/08 05:39:55;;;;;;;0.23;0.23;;;;;;;24.21;48.69;95081.41;5007952;28;20824;-66
2022/07/08 05:42:21;;;;;;;1.43;1.33;;;;;;;24.19;48.27;95076.38;5007903;28;20280;-66
2022/07/08 05:44:48;;;;;;;0.73;0.73;;;;;;;24.59;47.72;95063.81;5029955;28;20208;-67
2022/07/08 05:47:15;;;;;;;1.07;0.97;;;;;;;24.87;47.15;95064.63;5049169;28;20196;-66
2022/07/08 05:49:43;;;;;;;0.80;0.80;;;;;;;24.77;47.10;95069.69;5018488;28;20197;-65
2022/07/08 05:52:10;;;;;;;1.67;1.53;;;;;;;24.64;47.64;95060.88;5022768;28;20570;-66
2022/07/08 05:54:38;;;;;;;0.63;0.63;;;;;;;24.95;47.21;95060.25;5047930;28;20216;-67
2022/07/08 05:57:07;;;;;;;0.67;0.67;;;;;;;25.14;46.87;95054.25;5009145;28;20296;-66
2022/07/08 05:59:34;;;;;;;1.80;1.20;;;;;;;24.93;47.34;95071.31;5009197;28;20201;-66
2022/07/08 06:02:00;;;;;;;3.17;1.50;;;;;;;24.19;48.06;95063.00;5014326;28;20209;-67
2022/07/08 06:04:27;;;;;;;1.40;1.30;;;;;;;24.79;47.01;95059.41;5028808;28;20259;-65
2022/07/08 06:06:55;;;;;;;8.87;1.87;;;;;;;24.98;46.85;95054.22;5045367;28;20659;-66
2022/07/08 06:09:22;;;;;;;0.70;0.70;;;;;;;25.26;46.27;95056.84;5015544;28;20206;-66
2022/07/08 06:11:49;;;;;;;0.87;0.87;;;;;;;25.39;46.98;95063.75;5027776;28;20228;-65
2022/07/08 06:14:17;;;;;;;1.73;1.17;;;;;;;24.77;47.69;95065.13;5044763;28;20196;-66
2022/07/08 06:16:47;;;;;;;0.70;0.70;;;;;;;25.40;46.33;95065.31;5048820;28;20250;-66
2022/07/08 06:19:15;;;;;;;0.60;0.60;;;;;;;25.18;46.48;95065.84;5034754;28;20212;-65
2022/07/08 06:21:43;;;;;;;1.53;1.43;;;;;;;25.07;46.93;95058.28;5021426;28;20242;-65
2022/07/08 06:24:10;;;;;;;2.63;1.77;;;;;;;25.13;46.62;95060.75;5035825;28;20267;-66
2022/07/08 06:26:37;;;;;;;1.47;1.30;;;;;;;25.24;47.42;95051.06;5012492;28;20716;-65
2022/07/08 06:29:04;;;;;;;3.03;1.50;;;;;;;25.62;46.56;95045.94;5039187;28;20261;-66
2022/07/08 06:31:31;;;;;;;0.93;0.93;;;;;;;25.81;45.68;95049.50;5028008;28;20267;-67
2022/07/08 06:33:58;;;;;;;0.80;0.80;;;;;;;25.79;45.96;95042.91;5026822;28;20644;-65
2022/07/08 06:36:26;;;;;;;0.67;0.67;;;;;;;25.92;45.65;95044.38;5045379;28;20200;-66
2022/07/08 06:38:53;;;;;;;1.90;1.67;;;;;;;25.95;45.31;95032.91;5016527;28;20306;-66
2022/07/08 06:41:26;;;;;;;0.47;0.33;;;;;;;25.85;45.21;95038.84;5028366;28;20223;-66
2022/07/08 06:43:53;;;;;;;1.60;1.47;;;;;;;25.80;45.48;95042.53;5034547;28;20193;-65
2022/07/08 06:46:19;;;;;;;0.67;0.67;;;;;;;25.89;45.47;95045.06;5022435;28;20664;-65
2022/07/08 06:48:46;;;;;;;0.50;0.47;;;;;;;26.08;45.25;95034.41;5046377;28;20660;-67
2022/07/08 06:51:13;;;;;;;0.90;0.80;;;;;;;26.15;44.71;95033.81;5026623;28;20221;-67
2022/07/08 06:56:25;;;;;;;0.63;0.53;;;;;;;25.96;45.32;95021.06;5011124;28;20296;-65
2022/07/08 06:58:53;;;;;;;3.90;1.70;;;;;;;25.72;45.02;95018.56;5036628;28;20204;-66
2022/07/08 07:01:19;;;;;;;1.13;1.03;;;;;;;26.12;43.82;95016.47;5049603;28;20196;-65
2022/07/08 07:03:46;;;;;;;1.93;1.73;;;;;;;26.18;44.25;95004.34;5021118;28;20261;-66
2022/07/08 07:06:13;;;;;;;0.80;0.80;;;;;;;26.30;44.46;95016.84;5049308;28;20200;-64
2022/07/08 07:08:41;;;;;;;0.40;0.40;;;;;;;26.39;44.65;95004.00;5012948;28;20236;-65
2022/07/08 07:11:08;;;;;;;1.63;1.43;;;;;;;26.53;44.44;95010.44;5012880;28;20228;-65
2022/07/08 07:13:34;;;;;;;3.97;1.67;;;;;;;26.60;43.69;95005.22;5029297;28;20201;-66
2022/07/08 07:16:01;;;;;;;0.70;0.70;;;;;;;26.60;43.03;94994.47;5043296;28;20629;-65
2022/07/08 07:18:28;;;;;;;0.73;0.73;;;;;;;26.56;44.49;95001.69;5022142;28;20212;-65
2022/07/08 07:20:55;;;;;;;0.70;0.70;;;;;;;26.95;44.11;94997.88;5013650;28;20186;-64
2022/07/08 07:23:22;;;;;;;0.80;0.80;;;;;;;26.90;42.27;94995.47;5025563;28;20271;-65
2022/07/08 07:25:49;;;;;;;1.20;0.77;;;;;;;27.07;42.23;95001.53;5053242;28;20227;-66
2022/07/08 07:28:16;;;;;;;0.33;0.33;;;;;;;27.38;42.29;95002.13;5044609;28;20259;-66
2022/07/08 07:30:43;;;;;;;0.70;0.70;;;;;;;27.00;41.45;94997.59;5022194;28;20259;-65
2022/07/08 07:33:15;;;;;;;0.50;0.50;;;;;;;27.16;41.34;94994.78;5019613;28;20200;-64
2022/07/08 07:35:41;;;;;;;1.13;1.03;;;;;;;27.23;41.49;94992.22;5041292;28;20216;-64
2022/07/08 07:38:08;;;;;;;0.67;0.67;;;;;;;27.13;41.50;95000.09;5043274;28;20200;-65
2022/07/08 07:40:37;;;;;;;1.07;0.70;;;;;;;27.42;41.53;95004.88;5020105;28;20201;-65
2022/07/08 07:43:04;;;;;;;0.77;0.77;;;;;;;27.44;40.53;95016.06;5045316;28;20200;-65
2022/07/08 07:45:31;;;;;;;0.63;0.63;;;;;;;27.52;40.86;95007.75;5024438;28;20201;-65
2022/07/08 07:47:58;;;;;;;0.40;0.40;;;;;;;27.46;40.81;95003.78;5037888;28;20247;-64
2022/07/08 07:50:26;;;;;;;0.43;0.43;;;;;;;27.44;40.65;95005.31;5045985;28;20691;-65
2022/07/08 07:52:54;;;;;;;0.50;0.50;;;;;;;27.57;41.52;95004.75;5043114;28;20211;-65
2022/07/08 07:55:21;;;;;;;0.43;0.43;;;;;;;27.75;40.64;95005.03;5038018;28;20205;-64
2022/07/08 07:57:48;;;;;;;0.23;0.23;;;;;;;28.09;39.79;95004.06;5036502;28;20215;-64
2022/07/08 08:00:16;;;;;;;0.30;0.30;;;;;;;28.09;39.79;95004.06;5041410;28;20228;-64
2022/07/08 08:02:43;;;;;;;0.30;0.30;;;;;;;27.67;39.29;94998.78;5033625;28;20196;-64
2022/07/08 08:05:12;;;;;;;0.50;0.50;;;;;;;28.01;39.80;95002.38;5050930;28;20212;-66
2022/07/08 08:07:41;;;;;;;0.80;0.80;;;;;;;28.14;39.77;95001.03;5045864;28;20275;-63
2022/07/08 08:10:11;;;;;;;0.60;0.60;;;;;;;28.24;39.62;95007.72;5028968;28;20224;-65
2022/07/08 08:12:37;;;;;;;0.60;0.60;;;;;;;28.22;39.04;95002.69;5047451;28;20225;-64
2022/07/08 08:15:05;;;;;;;4.50;1.00;;;;;;;28.08;37.68;95007.91;5026621;28;20205;-64
2022/07/08 08:17:39;;;;;;;0.67;0.67;;;;;;;28.41;37.73;95005.25;5022949;28;20570;-63
2022/07/08 08:20:09;;;;;;;0.20;0.20;;;;;;;27.91;38.31;94997.59;5025061;28;20204;-64
2022/07/08 08:22:37;;;;;;;0.23;0.23;;;;;;;28.41;38.43;95002.56;5050852;28;20251;-64
2022/07/08 08:25:23;;;;;;;0.53;0.53;;;;;;;28.61;38.23;94995.91;5033565;28;20237;-64
2022/07/08 08:27:50;;;;;;;0.50;0.50;;;;;;;28.67;37.32;94991.75;5038713;28;20293;-64
2022/07/08 08:30:17;;;;;;;0.20;0.20;;;;;;;28.76;37.98;94989.56;5010168;28;20556;-64
2022/07/08 08:32:45;;;;;;;0.87;0.67;;;;;;;28.85;38.04;94992.75;5011092;28;20230;-64
2022/07/08 08:35:12;;;;;;;0.37;0.37;;;;;;;28.95;38.16;94981.31;5049485;28;20261;-63
2022/07/08 08:37:39;;;;;;;1.83;1.43;;;;;;;28.94;37.75;94979.72;5050844;28;20208;-63
2022/07/08 08:40:11;;;;;;;0.30;0.30;;;;;;;28.83;37.62;94988.88;5042988;28;20205;-64
2022/07/08 08:45:32;;;;;;;0.40;0.40;;;;;;;29.25;38.18;94983.91;5010597;28;20229;-64
2022/07/08 08:48:06;;;;;;;0.53;0.50;;;;;;;29.42;37.59;94977.13;5036236;28;20224;-63
2022/07/08 08:50:53;;;;;;;0.50;0.50;;;;;;;29.16;37.39;94974.59;5038792;28;20197;-63
2022/07/08 08:53:25;;;;;;;0.50;0.50;;;;;;;29.22;38.14;94965.00;5038163;28;20196;-66
2022/07/08 08:55:55;;;;;;;0.30;0.30;;;;;;;29.22;37.53;94967.69;5010455;28;20244;-62
2022/07/08 08:58:22;;;;;;;0.57;0.57;;;;;;;29.39;37.43;94959.78;5044239;28;20192;-64
2022/07/08 09:00:49;;;;;;;0.33;0.33;;;;;;;29.39;37.26;94964.41;5050049;28;20250;-63
2022/07/08 09:03:16;;;;;;;0.40;0.40;;;;;;;29.41;36.78;94962.09;5019130;28;20206;-63
2022/07/08 09:05:43;;;;;;;0.30;0.30;;;;;;;29.66;34.43;94944.94;5010375;28;20202;-63
2022/07/08 09:08:10;;;;;;;0.57;0.57;;;;;;;29.70;34.75;94942.31;5017023;28;20198;-64
2022/07/08 09:10:37;;;;;;;1.27;1.13;;;;;;;29.39;34.16;94954.38;5035909;28;20205;-62
2022/07/08 09:13:05;;;;;;;0.33;0.33;;;;;;;29.55;34.62;94948.72;5049856;28;20197;-62
2022/07/08 09:15:40;;;;;;;0.40;0.40;;;;;;;29.48;34.99;94948.66;5049833;28;20647;-63
2022/07/08 09:18:10;;;;;;;0.40;0.40;;;;;;;29.78;34.82;94941.22;5044940;28;20197;-63
2022/07/08 09:20:48;;;;;;;5.07;1.80;;;;;;;29.70;34.44;94940.38;5040947;28;20204;-61
2022/07/08 09:23:16;;;;;;;0.50;0.50;;;;;;;29.55;34.04;94937.91;5025595;28;20190;-63
2022/07/08 09:25:52;;;;;;;0.30;0.30;;;;;;;29.73;34.51;94930.72;5020694;28;20263;-63
2022/07/08 09:28:30;;;;;;;0.30;0.30;;;;;;;29.69;35.62;94932.63;5043215;28;20684;-63
2022/07/08 09:31:00;;;;;;;0.33;0.33;;;;;;;29.78;35.83;94930.41;5042120;28;20208;-63
2022/07/08 09:33:28;;;;;;;0.43;0.43;;;;;;;28.52;35.78;94936.09;5021280;28;20207;-62
2022/07/08 09:35:56;;;;;;;0.60;0.60;;;;;;;28.61;36.24;94938.53;5026929;28;20214;-63
2022/07/08 09:38:24;;;;;;;0.40;0.40;;;;;;;29.39;36.61;94934.69;5030817;28;20201;-62
2022/07/08 09:40:59;;;;;;;3.83;1.43;;;;;;;29.50;35.52;94922.84;5049394;28;20287;-63
2022/07/08 09:43:26;;;;;;;0.20;0.20;;;;;;;29.83;33.93;94916.53;5031984;28;20570;-62
2022/07/08 09:45:54;;;;;;;0.30;0.30;;;;;;;29.69;32.78;94921.81;5038694;28;20250;-62
2022/07/08 09:48:26;;;;;;;0.20;0.20;;;;;;;29.86;33.08;94921.19;5048990;28;20214;-63
2022/07/08 09:50:53;;;;;;;0.67;0.40;;;;;;;29.99;33.15;94906.22;5040539;28;20266;-62
2022/07/08 09:53:29;;;;;;;0.73;0.73;;;;;;;29.86;32.94;94902.25;5031151;28;20204;-63
2022/07/08 09:55:58;;;;;;;0.50;0.50;;;;;;;30.05;34.18;94907.41;5026112;28;20208;-63
2022/07/08 09:58:30;;;;;;;0.40;0.40;;;;;;;29.72;33.29;94910.28;5030049;28;20541;-63
2022/07/08 10:01:00;;;;;;;0.30;0.30;;;;;;;29.75;32.57;94896.81;5028307;28;20255;-61
2022/07/08 10:03:28;;;;;;;0.23;0.23;;;;;;;29.74;33.04;94897.94;5040243;28;20205;-62
2022/07/08 10:05:56;;;;;;;0.20;0.20;;;;;;;30.09;33.05;94902.78;5029001;28;20553;-60
2022/07/08 10:08:24;;;;;;;0.33;0.33;;;;;;;30.21;32.70;94897.06;5027211;28;20202;-62
2022/07/08 10:10:53;;;;;;;0.63;0.63;;;;;;;30.32;33.09;94895.19;5038722;28;20200;-62
2022/07/08 10:13:23;;;;;;;0.40;0.40;;;;;;;30.74;31.97;94895.34;5048621;28;20205;-62
2022/07/08 10:15:55;;;;;;;0.67;0.67;;;;;;;30.99;31.42;94879.16;5049062;28;20782;-62
2022/07/08 10:18:35;;;;;;;0.40;0.40;;;;;;;31.18;31.05;94880.72;5042314;28;20221;-61
2022/07/08 10:21:06;;;;;;;0.40;0.40;;;;;;;31.24;31.08;94860.25;5042557;28;20200;-61
2022/07/08 10:23:45;;;;;;;0.53;0.53;;;;;;;31.44;31.28;94873.00;5028750;28;20193;-62
2022/07/08 10:26:17;;;;;;;0.30;0.30;;;;;;;31.16;30.78;94866.81;5027872;28;20676;-62
2022/07/08 10:28:44;;;;;;;0.43;0.43;;;;;;;31.33;30.58;94863.31;5036738;28;20660;-62
2022/07/08 10:31:22;;;;;;;0.40;0.40;;;;;;;30.94;31.74;94859.81;5020523;28;20194;-62
2022/07/08 10:33:53;;;;;;;0.30;0.30;;;;;;;30.86;31.28;94862.53;5048741;28;20192;-62
2022/07/08 10:36:21;;;;;;;0.40;0.40;;;;;;;30.84;30.65;94855.94;5032759;28;20209;-63
2022/07/08 10:38:49;;;;;;;0.30;0.30;;;;;;;30.95;31.72;94851.31;5008892;28;20201;-61
2022/07/08 10:41:20;;;;;;;0.40;0.40;;;;;;;31.51;30.82;94845.16;5021994;28;20193;-62
2022/07/08 10:43:50;;;;;;;0.33;0.33;;;;;;;32.13;29.91;94846.19;5022842;28;20206;-62
2022/07/08 10:46:19;;;;;;;0.30;0.30;;;;;;;32.37;29.69;94847.25;5008792;28;20198;-60
2022/07/08 10:49:01;;;;;;;0.60;0.60;;;;;;;32.68;29.18;94852.50;5041568;28;20223;-61
2022/07/08 10:51:31;;;;;;;0.33;0.33;;;;;;;32.77;29.36;94850.13;5041629;28;20215;-61
2022/07/08 10:54:08;;;;;;;0.63;0.60;;;;;;;33.07;28.92;94870.50;5040332;28;20189;-62
2022/07/08 10:56:53;;;;;;;0.40;0.33;;;;;;;33.03;28.64;94861.63;5017167;28;20237;-61
2022/07/08 10:59:23;;;;;;;0.70;0.70;;;;;;;32.88;28.16;94854.72;5036947;28;20586;-63
2022/07/08 11:01:50;;;;;;;0.47;0.30;;;;;;;33.22;28.64;94855.66;5045895;28;20246;-61
2022/07/08 11:04:21;;;;;;;0.20;0.20;;;;;;;33.11;29.02;94854.97;5048205;28;20682;-61
2022/07/08 11:06:48;;;;;;;0.20;0.20;;;;;;;33.08;27.73;94842.19;5033805;28;20212;-61
2022/07/08 11:09:17;;;;;;;0.73;0.67;;;;;;;32.72;27.43;94839.69;5018433;28;20197;-61
2022/07/08 11:11:45;;;;;;;0.63;0.63;;;;;;;31.79;28.48;94845.09;5020010;28;20214;-63
2022/07/08 11:14:13;;;;;;;0.50;0.30;;;;;;;31.47;29.05;94838.97;5036933;28;20196;-63
2022/07/08 11:16:41;;;;;;;0.43;0.43;;;;;;;31.69;30.07;94841.25;5041382;28;20197;-62
2022/07/08 11:19:08;;;;;;;0.20;0.20;;;;;;;31.67;30.38;94832.75;5041026;28;20755;-63
2022/07/08 11:21:35;;;;;;;0.27;0.27;;;;;;;31.57;30.36;94838.94;5042753;28;20204;-61
2022/07/08 11:24:02;;;;;;;0.23;0.23;;;;;;;31.85;29.02;94828.03;5039750;28;20204;-62
2022/07/08 11:26:29;;;;;;;0.67;0.63;;;;;;;31.83;30.47;94808.69;5034099;28;20232;-62
2022/07/08 11:28:55;;;;;;;0.43;0.43;;;;;;;31.96;30.53;94822.63;5033868;28;20197;-63
2022/07/08 11:31:27;;;;;;;5.20;0.70;;;;;;;31.88;30.43;94823.75;5030173;28;20769;-61
2022/07/08 11:33:54;;;;;;;0.30;0.30;;;;;;;31.76;29.98;94819.56;5039197;28;20197;-64
2022/07/08 11:36:22;;;;;;;0.40;0.40;;;;;;;31.54;30.13;94817.28;5040882;28;20578;-63
2022/07/08 11:38:50;;;;;;;0.30;0.30;;;;;;;31.47;30.32;94820.00;5022481;28;20587;-62
2022/07/08 11:41:20;;;;;;;0.53;0.53;;;;;;;31.52;30.29;94823.09;5034089;28;20209;-62
2022/07/08 11:43:49;;;;;;;0.47;0.43;;;;;;;30.83;30.52;94817.31;5021953;28;20202;-61